Map

Track Data

SID SEASON NUMBER BASIN SUBBASIN NAME ISO_TIME NATURE LAT LON WMO_WIND WMO_PRES WMO_AGENCY TRACK_TYPE DIST2LAND LANDFALL IFLAG USA_AGENCY USA_ATCF_ID USA_LAT USA_LON USA_RECORD USA_STATUS USA_WIND USA_PRES USA_SSHS USA_R34_NE USA_R34_SE USA_R34_SW USA_R34_NW USA_R50_NE USA_R50_SE USA_R50_SW USA_R50_NW USA_R64_NE USA_R64_SE USA_R64_SW USA_R64_NW USA_POCI USA_ROCI USA_RMW USA_EYE TOKYO_LAT TOKYO_LON TOKYO_GRADE TOKYO_WIND TOKYO_PRES TOKYO_R50_DIR TOKYO_R50_LONG TOKYO_R50_SHORT TOKYO_R30_DIR TOKYO_R30_LONG TOKYO_R30_SHORT TOKYO_LAND CMA_LAT CMA_LON CMA_CAT CMA_WIND CMA_PRES HKO_LAT HKO_LON HKO_CAT HKO_WIND HKO_PRES NEWDELHI_LAT NEWDELHI_LON NEWDELHI_GRADE NEWDELHI_WIND NEWDELHI_PRES NEWDELHI_CI NEWDELHI_DP NEWDELHI_POCI REUNION_LAT REUNION_LON REUNION_TYPE REUNION_WIND REUNION_PRES REUNION_TNUM REUNION_CI REUNION_RMW REUNION_R34_NE REUNION_R34_SE REUNION_R34_SW REUNION_R34_NW REUNION_R50_NE REUNION_R50_SE REUNION_R50_SW REUNION_R50_NW REUNION_R64_NE REUNION_R64_SE REUNION_R64_SW REUNION_R64_NW BOM_LAT BOM_LON BOM_TYPE BOM_WIND BOM_PRES BOM_TNUM BOM_CI BOM_RMW BOM_R34_NE BOM_R34_SE BOM_R34_SW BOM_R34_NW BOM_R50_NE BOM_R50_SE BOM_R50_SW BOM_R50_NW BOM_R64_NE BOM_R64_SE BOM_R64_SW BOM_R64_NW BOM_ROCI BOM_POCI BOM_EYE BOM_POS_METHOD BOM_PRES_METHOD NADI_LAT NADI_LON NADI_CAT NADI_WIND NADI_PRES WELLINGTON_LAT WELLINGTON_LON WELLINGTON_WIND WELLINGTON_PRES DS824_LAT DS824_LON DS824_STAGE DS824_WIND DS824_PRES TD9636_LAT TD9636_LON TD9636_STAGE TD9636_WIND TD9636_PRES TD9635_LAT TD9635_LON TD9635_WIND TD9635_PRES TD9635_ROCI NEUMANN_LAT NEUMANN_LON NEUMANN_CLASS NEUMANN_WIND NEUMANN_PRES MLC_LAT MLC_LON MLC_CLASS MLC_WIND MLC_PRES USA_GUST BOM_GUST BOM_GUST_PER REUNION_GUST REUNION_GUST_PER USA_SEAHGT USA_SEARAD_NE USA_SEARAD_SE USA_SEARAD_SW USA_SEARAD_NW STORM_SPEED STORM_DIR
1867032S15081 1867 3 SI MM NOT_NAMED 1867-02-01 06:00:00 NR -15.4000 80.9000 spur-split 2386 2386 _____O________ -1 -15.4000 80.9000 99 9.90000 1 0
1867032S15081 1867 3 SI MM NOT_NAMED 1867-02-01 09:00:00 NR -15.4110 80.8737 spur-split 2386 2386 _____P________ -1 -15.4110 80.8737 99 1 246
1867032S15081 1867 3 SI MM NOT_NAMED 1867-02-01 12:00:00 NR -15.4281 80.8392 spur-split 2386 2386 _____P________ -1 -15.4281 80.8392 99 1 238
1867032S15081 1867 3 SI MM NOT_NAMED 1867-02-01 15:00:00 NR -15.4574 80.7883 spur-split 2397 2397 _____P________ -1 -15.4574 80.7883 99 1 237
1867032S15081 1867 3 SI MM NOT_NAMED 1867-02-01 18:00:00 NR -15.5050 80.7129 spur-split 2397 2397 _____P________ -1 -15.5050 80.7129 99 2 236
1867032S15081 1867 3 SI MM NOT_NAMED 1867-02-01 21:00:00 NR -15.5770 80.6047 spur-split 2408 2408 _____P________ -1 -15.5770 80.6047 99 3 235
1867032S15081 1867 3 SI MM NOT_NAMED 1867-02-02 00:00:00 NR -15.6795 80.4554 spur-split 2419 2419 _____P________ -1 -15.6795 80.4554 99 4 234
1867032S15081 1867 3 SI MM NOT_NAMED 1867-02-02 03:00:00 NR -15.8185 80.2567 spur-split 2429 2392 _____P________ -1 -15.8185 80.2567 99 5 234
1867032S15081 1867 3 SI MM NOT_NAMED 1867-02-02 06:00:00 NR -16.0000 80.0000 reunion spur-split 2392 2355 _____O________ -1 -16.0000 80.0000 99 9.90000 7 234
1867032S15081 1867 3 SI MM NOT_NAMED 1867-02-02 09:00:00 NR -16.2270 79.6808 spur-split 2355 2306 _____P________ -1 -16.2270 79.6808 99 8 233
1867032S15081 1867 3 SI MM NOT_NAMED 1867-02-02 12:00:00 NR -16.4906 79.3105 spur-split 2306 2256 _____P________ -1 -16.4906 79.3105 99 9 233
1867032S15081 1867 3 SI MM NOT_NAMED 1867-02-02 15:00:00 NR -16.7794 78.9047 spur-split 2256 2207 _____P________ -1 -16.7794 78.9047 99 10 233
1867032S15081 1867 3 SI MM NOT_NAMED 1867-02-02 18:00:00 NR -17.0818 78.4790 spur-split 2207 2159 _____P________ -1 -17.0818 78.4790 99 10 233
1867032S15081 1867 3 SI MM NOT_NAMED 1867-02-02 21:00:00 NR -17.3863 78.0495 spur-split 2148 2111 _____P________ -1 -17.3863 78.0495 99 10 233
1867032S15081 1867 3 SI MM NOT_NAMED 1867-02-03 00:00:00 NR -17.6816 77.6323 spur-split 2100 2065 _____P________ -1 -17.6816 77.6323 99 10 233
1867032S15081 1867 3 SI MM NOT_NAMED 1867-02-03 03:00:00 NR -17.9565 77.2436 spur-split 2052 2017 _____P________ -1 -17.9565 77.2436 99 9 233
1867032S15081 1867 3 SI MM NOT_NAMED 1867-02-03 06:00:00 NR -18.2000 76.9000 reunion spur-split 2017 1982 _____O________ -1 -18.2000 76.9000 99 9.90000 7 233
1867032S15081 1867 3 SI MM NOT_NAMED 1867-02-03 09:00:00 NR -18.4040 76.6141 spur-split 1982 1958 _____P________ -1 -18.4040 76.6141 99 6 233
1867032S15081 1867 3 SI MM NOT_NAMED 1867-02-03 12:00:00 NR -18.5711 76.3823 spur-split 1958 1935 _____P________ -1 -18.5711 76.3823 99 5 233
1867032S15081 1867 3 SI MM NOT_NAMED 1867-02-03 15:00:00 NR -18.7069 76.1971 spur-split 1935 1923 _____P________ -1 -18.7069 76.1971 99 4 232
1867032S15081 1867 3 SI MM NOT_NAMED 1867-02-03 18:00:00 NR -18.8167 76.0508 spur-split 1923 1901 _____P________ -1 -18.8167 76.0508 99 3 231
1867032S15081 1867 3 SI MM NOT_NAMED 1867-02-03 21:00:00 NR -18.9056 75.9358 spur-split 1901 1889 _____P________ -1 -18.9056 75.9358 99 3 230
1867032S15081 1867 3 SI MM NOT_NAMED 1867-02-04 00:00:00 NR -18.9790 75.8442 spur-split 1889 1889 _____P________ -1 -18.9790 75.8442 99 2 229
1867032S15081 1867 3 SI MM NOT_NAMED 1867-02-04 03:00:00 NR -19.0421 75.7682 spur-split 1889 1877 _____P________ -1 -19.0421 75.7682 99 2 228
1867032S15081 1867 3 SI MM NOT_NAMED 1867-02-04 06:00:00 NR -19.1000 75.7000 reunion spur-split 1877 _____O________ -1 -19.1000 75.7000 99 9.90000 2 229

About IBTrACS Database

This database is a web-friendly format of International Best Track Archive for Climate Stewardship (IBTrACS), a global best track data archive curated by NOAA dating back to 1842.

Updated: 2021-12-08